createdAt,value
2017-06-26T00:00:27.805Z,3.03
2017-06-26T00:02:55.401Z,6.00
2017-06-26T00:05:22.957Z,3.53
2017-06-26T00:07:50.522Z,4.97
2017-06-26T00:10:18.114Z,3.93
2017-06-26T00:12:46.443Z,4.20
2017-06-26T00:15:14.086Z,3.83
2017-06-26T00:17:41.649Z,3.73
2017-06-26T00:20:09.206Z,3.80
2017-06-26T00:22:36.778Z,4.33
2017-06-26T00:25:04.329Z,4.00
2017-06-26T00:27:31.886Z,2.83
2017-06-26T00:29:59.502Z,2.80
2017-06-26T00:32:27.830Z,3.60
2017-06-26T00:34:55.389Z,2.67
2017-06-26T00:37:22.992Z,6.80
2017-06-26T00:39:50.554Z,3.43
2017-06-26T00:42:18.112Z,2.77
2017-06-26T00:44:45.693Z,4.00
2017-06-26T00:47:14.015Z,4.20
2017-06-26T00:49:41.642Z,3.27
2017-06-26T00:52:09.968Z,3.70
2017-06-26T00:54:37.533Z,3.00
2017-06-26T00:57:05.105Z,3.67
2017-06-26T00:59:32.660Z,6.00
2017-06-26T01:02:00.219Z,6.20
2017-06-26T01:04:27.801Z,4.10
2017-06-26T01:06:55.446Z,6.23
2017-06-26T01:09:23.009Z,3.90
2017-06-26T01:11:50.599Z,3.67
2017-06-26T01:14:18.917Z,3.30
2017-06-26T01:16:46.499Z,3.60
2017-06-26T01:19:14.077Z,8.00
2017-06-26T01:21:41.657Z,6.20
2017-06-26T01:24:09.999Z,3.27
2017-06-26T01:26:37.558Z,4.50
2017-06-26T01:29:05.145Z,7.00
2017-06-26T01:31:32.697Z,3.87
2017-06-26T01:34:00.261Z,6.60
2017-06-26T01:36:27.854Z,6.80
2017-06-26T01:38:56.174Z,8.77
2017-06-26T01:41:23.758Z,4.73
2017-06-26T01:43:51.318Z,5.53
2017-06-26T01:46:18.885Z,3.97
2017-06-26T01:48:46.473Z,6.10
2017-06-26T01:51:14.114Z,4.80
2017-06-26T01:53:41.689Z,6.03
2017-06-26T01:56:10.049Z,8.57
2017-06-26T01:58:37.609Z,5.80
2017-06-26T02:01:05.201Z,8.67
2017-06-26T02:03:32.777Z,4.30
2017-06-26T02:06:00.345Z,7.60
2017-06-26T02:08:27.963Z,8.93
2017-06-26T02:10:55.528Z,7.50
2017-06-26T02:13:23.748Z,6.93
2017-06-26T02:15:51.322Z,9.40
2017-06-26T02:18:18.906Z,5.13
2017-06-26T02:20:46.473Z,7.83
2017-06-26T02:23:14.039Z,7.73
2017-06-26T02:25:41.750Z,8.77
2017-06-26T02:28:10.171Z,7.57
2017-06-26T02:30:37.726Z,6.53
2017-06-26T02:33:05.309Z,10.50
2017-06-26T02:35:32.866Z,8.30
2017-06-26T02:38:00.432Z,8.23
2017-06-26T02:40:28.030Z,7.70
2017-06-26T02:42:55.591Z,8.30
2017-06-26T02:45:23.180Z,9.10
2017-06-26T02:47:50.765Z,8.70
2017-06-26T02:50:18.321Z,8.87
2017-06-26T02:52:45.877Z,6.47
2017-06-26T02:55:13.450Z,6.63
2017-06-26T02:57:41.011Z,11.60
2017-06-26T03:00:08.589Z,10.33
2017-06-26T03:02:36.177Z,9.13
2017-06-26T03:05:03.751Z,8.47
2017-06-26T03:07:31.329Z,8.87
2017-06-26T03:09:58.910Z,10.07
2017-06-26T03:12:26.490Z,8.23
2017-06-26T03:14:54.114Z,10.40
2017-06-26T03:17:21.689Z,8.47
2017-06-26T03:19:49.289Z,10.77
2017-06-26T03:22:17.685Z,8.00
2017-06-26T03:24:45.261Z,7.83
2017-06-26T03:27:12.896Z,9.20
2017-06-26T03:29:40.481Z,9.33
2017-06-26T03:32:08.067Z,9.17
2017-06-26T03:34:35.639Z,8.80
2017-06-26T03:37:03.216Z,11.67
2017-06-26T03:39:31.549Z,12.63
2017-06-26T03:41:59.138Z,8.97
2017-06-26T03:44:26.712Z,9.03
2017-06-26T03:46:54.297Z,15.43
2017-06-26T03:49:21.938Z,13.23
2017-06-26T03:51:50.269Z,12.13
2017-06-26T03:54:17.846Z,11.80
2017-06-26T03:56:45.421Z,8.03
2017-06-26T03:59:12.982Z,10.83
2017-06-26T04:01:40.574Z,10.87
2017-06-26T04:04:08.151Z,11.80
2017-06-26T04:06:35.741Z,8.57
2017-06-26T04:09:03.346Z,13.30
2017-06-26T04:11:30.897Z,14.33
2017-06-26T04:13:58.477Z,11.20
2017-06-26T04:16:26.802Z,11.40
2017-06-26T04:18:54.361Z,12.47
2017-06-26T04:21:21.983Z,12.70
2017-06-26T04:23:50.320Z,12.03
2017-06-26T04:26:17.909Z,9.97
2017-06-26T04:28:46.231Z,8.53
2017-06-26T04:31:13.801Z,12.37
2017-06-26T04:33:41.385Z,12.80
2017-06-26T04:36:08.949Z,8.23
2017-06-26T04:38:36.510Z,10.73
2017-06-26T04:41:04.108Z,12.60
2017-06-26T04:43:32.430Z,9.60
2017-06-26T04:46:00.014Z,11.87
2017-06-26T04:48:27.710Z,10.57
2017-06-26T04:50:55.285Z,10.03
2017-06-26T04:53:22.883Z,10.67
2017-06-26T04:55:50.446Z,10.33
2017-06-26T04:58:18.021Z,14.20
2017-06-26T05:00:45.600Z,14.30
2017-06-26T05:03:13.926Z,10.57
2017-06-26T05:05:41.610Z,14.87
2017-06-26T05:08:09.173Z,13.40
2017-06-26T05:10:36.734Z,9.80
2017-06-26T05:13:04.310Z,10.53
2017-06-26T05:15:31.890Z,12.57
2017-06-26T05:18:00.218Z,11.50
2017-06-26T05:20:27.793Z,13.47
2017-06-26T05:22:55.396Z,12.97
2017-06-26T05:25:23.760Z,11.03
2017-06-26T05:27:51.341Z,13.47
2017-06-26T05:30:18.938Z,14.37
2017-06-26T05:32:46.530Z,15.03
2017-06-26T05:35:14.103Z,14.47
2017-06-26T05:37:41.661Z,17.57
2017-06-26T05:40:09.245Z,13.57
2017-06-26T05:42:36.837Z,19.07
2017-06-26T05:45:04.422Z,12.67
2017-06-26T05:47:31.987Z,17.70
2017-06-26T05:49:59.578Z,18.53
2017-06-26T05:52:27.923Z,18.47
2017-06-26T05:54:55.502Z,18.30
2017-06-26T05:57:23.098Z,17.20
2017-06-26T05:59:51.426Z,14.53
2017-06-26T06:02:19.022Z,17.73
2017-06-26T06:04:47.361Z,17.80
2017-06-26T06:07:14.925Z,17.80
2017-06-26T06:09:42.518Z,20.93
2017-06-26T06:12:10.854Z,16.63
2017-06-26T06:14:38.538Z,16.23
2017-06-26T06:17:06.122Z,18.07
2017-06-26T06:19:33.711Z,20.93
2017-06-26T06:22:01.277Z,19.07
2017-06-26T06:24:28.833Z,17.33
2017-06-26T06:26:56.429Z,20.70
2017-06-26T06:29:24.038Z,23.40
2017-06-26T06:31:52.397Z,20.50
2017-06-26T06:34:19.997Z,22.10
2017-06-26T06:36:47.557Z,21.73
2017-06-26T06:39:15.165Z,21.03
2017-06-26T06:41:42.790Z,23.23
2017-06-26T06:44:10.358Z,20.73
2017-06-26T06:46:37.923Z,22.23
2017-06-26T06:49:05.509Z,21.30
2017-06-26T06:51:33.077Z,21.63
2017-06-26T06:54:00.727Z,18.20
2017-06-26T06:56:28.304Z,19.47
2017-06-26T06:58:55.896Z,16.80
2017-06-26T07:01:23.487Z,19.97
2017-06-26T07:03:51.058Z,16.47
2017-06-26T07:06:18.618Z,15.37
2017-06-26T07:08:46.210Z,15.40
2017-06-26T07:11:13.802Z,15.50
2017-06-26T07:13:41.425Z,14.87
2017-06-26T07:16:09.009Z,19.80
2017-06-26T07:18:37.385Z,20.50
2017-06-26T07:21:05.731Z,24.13
2017-06-26T07:23:33.324Z,22.17
2017-06-26T07:26:00.922Z,23.70
2017-06-26T07:28:28.523Z,26.33
2017-06-26T07:30:56.103Z,24.90
2017-06-26T07:33:23.741Z,23.67
2017-06-26T07:35:51.332Z,22.23
2017-06-26T07:38:18.909Z,20.40
2017-06-26T07:40:46.506Z,22.47
2017-06-26T07:43:14.069Z,22.40
2017-06-26T07:45:41.661Z,24.20
2017-06-26T07:48:09.249Z,24.40
2017-06-26T07:50:37.590Z,24.13
2017-06-26T07:53:05.151Z,23.37
2017-06-26T07:55:32.734Z,17.80
2017-06-26T07:58:00.339Z,20.87
2017-06-26T08:00:27.934Z,19.83
2017-06-26T08:02:55.507Z,20.00
2017-06-26T08:05:23.118Z,25.73
2017-06-26T08:07:50.693Z,23.87
2017-06-26T08:10:18.268Z,21.67
2017-06-26T08:12:45.873Z,22.40
2017-06-26T08:15:13.454Z,25.87
2017-06-26T08:17:41.038Z,23.50
2017-06-26T08:20:08.611Z,18.93
2017-06-26T08:22:36.284Z,19.67
2017-06-26T08:25:03.875Z,17.43
2017-06-26T08:27:32.233Z,19.30
2017-06-26T08:29:59.825Z,15.37
2017-06-26T08:32:28.156Z,16.20
2017-06-26T08:34:55.734Z,18.90
2017-06-26T08:37:23.326Z,22.50
2017-06-26T08:39:50.897Z,19.70
2017-06-26T08:42:19.261Z,22.23
2017-06-26T08:44:46.849Z,22.33
2017-06-26T08:47:14.429Z,25.10
2017-06-26T08:49:42.160Z,24.27
2017-06-26T08:52:09.774Z,23.63
2017-06-26T08:54:37.425Z,22.87
2017-06-26T08:57:04.995Z,20.70
2017-06-26T08:59:32.582Z,22.00
2017-06-26T09:02:00.158Z,18.73
2017-06-26T09:04:27.766Z,18.90
2017-06-26T09:06:55.345Z,23.23
2017-06-26T09:09:22.917Z,19.47
2017-06-26T09:11:50.507Z,15.27
2017-06-26T09:14:18.833Z,13.63
2017-06-26T09:16:46.407Z,17.70
2017-06-26T09:19:13.986Z,16.30
2017-06-26T09:21:41.600Z,17.33
2017-06-26T09:24:09.150Z,14.17
2017-06-26T09:26:36.731Z,14.43
2017-06-26T09:29:04.310Z,15.40
2017-06-26T09:31:31.898Z,12.03
2017-06-26T09:33:59.490Z,11.77
2017-06-26T09:36:27.808Z,8.70
2017-06-26T09:38:55.385Z,6.77
2017-06-26T09:41:23.009Z,6.53
2017-06-26T09:43:50.591Z,7.43
2017-06-26T09:46:18.164Z,7.63
2017-06-26T09:48:45.793Z,6.30
2017-06-26T09:51:13.357Z,7.97
2017-06-26T09:53:40.974Z,9.20
2017-06-26T09:56:08.529Z,6.07
2017-06-26T09:58:36.086Z,4.53
2017-06-26T10:01:03.709Z,7.63
2017-06-26T10:03:31.268Z,4.93
2017-06-26T10:05:58.833Z,6.43
2017-06-26T10:08:26.410Z,6.53
2017-06-26T10:10:53.998Z,6.17
2017-06-26T10:13:21.631Z,9.53
2017-06-26T10:15:49.182Z,6.17
2017-06-26T10:18:16.743Z,6.70
2017-06-26T10:20:44.390Z,8.37
2017-06-26T10:23:12.002Z,6.07
2017-06-26T10:25:39.606Z,5.60
2017-06-26T10:28:07.189Z,4.43
2017-06-26T10:30:34.756Z,5.40
2017-06-26T10:33:02.353Z,4.93
2017-06-26T10:35:29.910Z,3.83
2017-06-26T10:37:58.230Z,4.47
2017-06-26T10:40:25.893Z,3.60
2017-06-26T10:42:53.458Z,6.33
2017-06-26T10:45:21.009Z,5.33
2017-06-26T10:47:48.605Z,3.20
2017-06-26T10:50:16.157Z,6.70
2017-06-26T10:52:43.743Z,3.10
2017-06-26T10:55:11.302Z,5.70
2017-06-26T10:57:38.889Z,4.33
2017-06-26T11:00:07.262Z,3.13
2017-06-26T11:02:35.612Z,6.57
2017-06-26T11:05:03.166Z,4.73
2017-06-26T11:07:30.857Z,4.53
2017-06-26T11:09:58.417Z,3.47
2017-06-26T11:12:26.006Z,3.40
2017-06-26T11:14:53.554Z,2.60
2017-06-26T11:17:21.878Z,5.27
2017-06-26T11:19:49.468Z,2.97
2017-06-26T11:22:17.038Z,4.57
2017-06-26T11:24:44.669Z,5.10
2017-06-26T11:27:12.243Z,4.40
2017-06-26T11:29:39.815Z,5.77
2017-06-26T11:32:07.419Z,3.70
2017-06-26T11:34:34.981Z,4.27
2017-06-26T11:37:02.553Z,3.63
2017-06-26T11:39:30.125Z,8.80
2017-06-26T11:41:57.721Z,6.50
2017-06-26T11:44:25.314Z,5.43
2017-06-26T11:46:53.634Z,4.73
2017-06-26T11:49:21.221Z,5.70
2017-06-26T11:51:49.876Z,3.47
2017-06-26T11:54:17.462Z,4.70
2017-06-26T11:56:45.067Z,5.23
2017-06-26T11:59:13.407Z,5.20
2017-06-26T12:01:41.042Z,5.80
2017-06-26T12:04:08.589Z,3.43
2017-06-26T12:06:36.185Z,3.30
2017-06-26T12:09:04.733Z,5.13
2017-06-26T12:11:32.359Z,2.70
2017-06-26T12:14:00.708Z,3.87
2017-06-26T12:16:28.298Z,3.80
2017-06-26T12:18:56.650Z,3.10
2017-06-26T12:21:24.225Z,4.73
2017-06-26T12:23:52.194Z,4.43
2017-06-26T12:26:19.775Z,3.87
2017-06-26T12:28:47.618Z,6.77
2017-06-26T12:31:15.182Z,9.37
2017-06-26T12:33:43.622Z,8.53
2017-06-26T12:36:12.318Z,3.23
2017-06-26T12:38:40.904Z,3.73
2017-06-26T12:41:09.654Z,2.90
2017-06-26T12:43:37.591Z,7.57
2017-06-26T12:46:05.953Z,3.40
2017-06-26T12:48:34.328Z,9.40
2017-06-26T12:51:02.051Z,3.27
2017-06-26T12:53:29.637Z,3.50
2017-06-26T12:55:57.213Z,4.87
2017-06-26T12:58:24.885Z,6.10
2017-06-26T13:00:52.499Z,6.67
2017-06-26T13:03:20.066Z,4.70
2017-06-26T13:05:47.638Z,4.63
2017-06-26T13:08:15.210Z,3.87
2017-06-26T13:10:42.799Z,8.23
2017-06-26T13:13:10.365Z,6.43
2017-06-26T13:15:37.933Z,2.80
2017-06-26T13:18:05.550Z,6.73
2017-06-26T13:20:33.117Z,6.67
2017-06-26T13:23:00.750Z,5.33
2017-06-26T13:25:28.307Z,7.97
2017-06-26T13:27:55.909Z,5.27
2017-06-26T13:30:23.550Z,7.33
2017-06-26T13:32:51.121Z,3.17
2017-06-26T13:35:18.687Z,4.57
2017-06-26T13:37:46.270Z,4.00
2017-06-26T13:40:13.846Z,3.40
2017-06-26T13:42:41.427Z,8.00
2017-06-26T13:45:09.789Z,4.73
2017-06-26T13:47:37.381Z,2.87
2017-06-26T13:50:04.974Z,4.60
2017-06-26T13:52:32.608Z,4.60
2017-06-26T13:55:00.202Z,3.87
2017-06-26T13:57:27.774Z,7.23
2017-06-26T13:59:55.329Z,2.80
2017-06-26T14:02:22.935Z,4.40
2017-06-26T14:04:51.308Z,3.47
2017-06-26T14:07:18.857Z,4.87
2017-06-26T14:09:46.456Z,8.80
2017-06-26T14:12:14.034Z,5.50
2017-06-26T14:14:41.620Z,5.33
2017-06-26T14:17:09.177Z,6.90
2017-06-26T14:19:36.759Z,2.77
2017-06-26T14:22:04.311Z,6.83
2017-06-26T14:24:31.886Z,2.90
2017-06-26T14:26:59.457Z,5.50
2017-06-26T14:29:27.794Z,3.60
2017-06-26T14:31:55.382Z,4.30
2017-06-26T14:34:22.947Z,6.10
2017-06-26T14:36:50.510Z,3.30
2017-06-26T14:39:18.091Z,5.00
2017-06-26T14:41:45.685Z,8.53
2017-06-26T14:44:13.261Z,4.03
2017-06-26T14:46:40.860Z,11.97
2017-06-26T14:49:08.460Z,8.70
2017-06-26T14:51:36.130Z,6.23
2017-06-26T14:54:03.713Z,4.50
2017-06-26T14:56:31.309Z,6.10
2017-06-26T14:58:58.882Z,5.67
2017-06-26T15:01:26.463Z,5.67
2017-06-26T15:03:54.071Z,4.60
2017-06-26T15:06:21.652Z,2.80
2017-06-26T15:08:49.221Z,7.40
2017-06-26T15:11:16.793Z,3.50
2017-06-26T15:13:44.397Z,3.73
2017-06-26T15:16:11.982Z,3.97
2017-06-26T15:18:39.582Z,6.83
2017-06-26T15:21:07.150Z,5.13
2017-06-26T15:23:34.722Z,3.90
2017-06-26T15:26:02.303Z,4.10
2017-06-26T15:28:29.873Z,4.03
2017-06-26T15:30:57.453Z,6.17
2017-06-26T15:33:25.023Z,3.73
2017-06-26T15:35:52.578Z,4.33
2017-06-26T15:38:20.941Z,7.97
2017-06-26T15:40:48.530Z,4.00
2017-06-26T15:43:16.873Z,7.53
2017-06-26T15:45:44.459Z,4.20
2017-06-26T15:48:12.829Z,5.97
2017-06-26T15:50:40.462Z,5.47
2017-06-26T15:53:08.035Z,7.67
2017-06-26T15:55:35.654Z,4.83
2017-06-26T15:58:03.206Z,6.07
2017-06-26T16:00:30.762Z,5.60
2017-06-26T16:02:58.354Z,3.20
2017-06-26T16:05:25.922Z,5.10
2017-06-26T16:07:53.513Z,4.30
2017-06-26T16:10:21.118Z,3.87
2017-06-26T16:12:48.700Z,4.57
2017-06-26T16:15:16.269Z,5.10
2017-06-26T16:17:43.853Z,4.80
2017-06-26T16:20:11.429Z,3.57
2017-06-26T16:22:39.049Z,9.17
2017-06-26T16:25:06.607Z,6.80
2017-06-26T16:27:34.242Z,3.30
2017-06-26T16:30:01.835Z,4.27
2017-06-26T16:32:29.402Z,6.27
2017-06-26T16:34:56.970Z,5.70
2017-06-26T16:37:24.589Z,6.57
2017-06-26T16:39:52.913Z,4.70
2017-06-26T16:42:20.512Z,9.73
2017-06-26T16:44:48.835Z,6.80
2017-06-26T16:47:16.391Z,2.80
2017-06-26T16:49:43.987Z,9.30
2017-06-26T16:52:11.561Z,4.23
2017-06-26T16:54:39.251Z,7.53
2017-06-26T16:57:07.614Z,5.47
2017-06-26T16:59:35.194Z,8.80
2017-06-26T17:02:02.773Z,3.20
2017-06-26T17:04:30.348Z,4.67
2017-06-26T17:06:57.917Z,9.10
2017-06-26T17:09:25.658Z,4.90
2017-06-26T17:11:53.251Z,6.53
2017-06-26T17:14:20.843Z,4.60
2017-06-26T17:16:48.423Z,6.07
2017-06-26T17:19:15.999Z,2.70
2017-06-26T17:21:43.580Z,3.20
2017-06-26T17:24:11.141Z,5.07
2017-06-26T17:26:38.716Z,5.07
2017-06-26T17:29:06.322Z,5.43
2017-06-26T17:31:33.910Z,4.07
2017-06-26T17:34:01.467Z,3.77
2017-06-26T17:36:29.058Z,5.77
2017-06-26T17:38:56.624Z,5.63
2017-06-26T17:41:24.247Z,5.13
2017-06-26T17:43:51.819Z,7.43
2017-06-26T17:46:19.412Z,6.53
2017-06-26T17:48:47.024Z,5.57
2017-06-26T17:51:14.577Z,5.50
2017-06-26T17:53:42.468Z,4.40
2017-06-26T17:56:10.055Z,5.40
2017-06-26T17:58:37.631Z,5.50
2017-06-26T18:01:05.209Z,6.90
2017-06-26T18:03:33.638Z,6.37
2017-06-26T18:06:01.194Z,8.33
2017-06-26T18:08:28.797Z,7.50
2017-06-26T18:10:56.356Z,4.87
2017-06-26T18:13:23.933Z,6.90
2017-06-26T18:15:52.276Z,5.97
2017-06-26T18:18:19.858Z,10.50
2017-06-26T18:20:47.492Z,2.93
2017-06-26T18:23:15.080Z,3.97
2017-06-26T18:25:42.683Z,4.37
2017-06-26T18:28:10.240Z,7.07
2017-06-26T18:30:37.811Z,6.83
2017-06-26T18:33:05.379Z,4.43
2017-06-26T18:35:32.957Z,8.00
2017-06-26T18:38:00.566Z,5.67
2017-06-26T18:40:28.958Z,3.90
2017-06-26T18:42:56.474Z,4.97
2017-06-26T18:45:24.090Z,8.40
2017-06-26T18:47:51.665Z,2.90
2017-06-26T18:50:19.238Z,5.23
2017-06-26T18:52:46.822Z,2.07
2017-06-26T18:55:14.413Z,5.23
2017-06-26T18:57:42.082Z,4.30
2017-06-26T19:00:09.713Z,6.73
2017-06-26T19:02:37.294Z,7.97
2017-06-26T19:05:05.668Z,4.37
2017-06-26T19:07:33.233Z,4.90
2017-06-26T19:10:00.823Z,5.80
2017-06-26T19:12:28.387Z,4.53
2017-06-26T19:14:56.017Z,2.47
2017-06-26T19:17:24.375Z,11.27
2017-06-26T19:19:51.962Z,3.93
2017-06-26T19:22:20.306Z,5.07
2017-06-26T19:24:47.917Z,7.10
2017-06-26T19:27:15.491Z,9.07
2017-06-26T19:29:43.066Z,5.10
2017-06-26T19:32:10.765Z,3.90
2017-06-26T19:34:41.870Z,5.63
2017-06-26T19:37:09.467Z,5.53
2017-06-26T19:39:37.139Z,5.13
2017-06-26T19:42:04.754Z,4.20
2017-06-26T19:44:32.317Z,7.93
2017-06-26T19:46:59.883Z,4.73
2017-06-26T19:49:27.475Z,8.03
2017-06-26T19:52:00.454Z,9.30
2017-06-26T19:54:28.044Z,2.67
2017-06-26T19:56:55.611Z,4.67
2017-06-26T19:59:23.987Z,4.13
2017-06-26T20:01:51.582Z,4.57
2017-06-26T20:04:19.172Z,8.33
2017-06-26T20:06:46.743Z,6.70
2017-06-26T20:09:14.333Z,3.90
2017-06-26T20:11:43.619Z,8.43
2017-06-26T20:14:11.183Z,8.07
2017-06-26T20:16:38.772Z,4.20
2017-06-26T20:19:07.122Z,4.33
2017-06-26T20:21:34.710Z,3.87
2017-06-26T20:24:03.061Z,6.93
2017-06-26T20:26:30.630Z,2.90
2017-06-26T20:28:58.981Z,5.50
2017-06-26T20:31:26.562Z,4.90
2017-06-26T20:33:54.130Z,4.17
2017-06-26T20:36:22.510Z,4.87
2017-06-26T20:38:50.108Z,6.40
2017-06-26T20:41:17.671Z,6.70
2017-06-26T20:43:45.283Z,4.30
2017-06-26T20:46:12.944Z,4.40
2017-06-26T20:48:40.505Z,4.87
2017-06-26T20:51:08.093Z,8.60
2017-06-26T20:53:36.457Z,8.17
2017-06-26T20:56:04.812Z,10.90
2017-06-26T20:58:32.976Z,7.03
2017-06-26T21:01:00.596Z,7.17
2017-06-26T21:03:28.905Z,13.13
2017-06-26T21:05:56.514Z,8.03
2017-06-26T21:08:24.097Z,7.30
2017-06-26T21:10:52.420Z,9.33
2017-06-26T21:13:20.011Z,6.27
2017-06-26T21:15:47.642Z,5.80
2017-06-26T21:18:15.240Z,6.13
2017-06-26T21:20:43.700Z,6.73
2017-06-26T21:23:11.274Z,7.33
2017-06-26T21:25:38.853Z,7.30
2017-06-26T21:28:07.177Z,8.80
2017-06-26T21:30:34.762Z,5.60
2017-06-26T21:33:02.363Z,9.50
2017-06-26T21:35:29.938Z,5.60
2017-06-26T21:37:57.711Z,7.53
2017-06-26T21:40:25.284Z,7.17
2017-06-26T21:42:53.272Z,6.30
2017-06-26T21:45:20.910Z,8.03
2017-06-26T21:47:48.488Z,6.23
2017-06-26T21:50:16.062Z,7.57
2017-06-26T21:52:43.653Z,11.03
2017-06-26T21:55:12.010Z,10.47
2017-06-26T21:57:39.593Z,8.63
2017-06-26T22:00:07.970Z,4.00
2017-06-26T22:02:36.310Z,6.87
2017-06-26T22:05:03.933Z,9.03
2017-06-26T22:07:32.263Z,8.00
2017-06-26T22:09:59.953Z,8.10
2017-06-26T22:12:28.313Z,11.53
2017-06-26T22:14:55.882Z,4.77
2017-06-26T22:17:23.442Z,6.17
2017-06-26T22:19:51.030Z,4.60
2017-06-26T22:22:18.652Z,7.83
2017-06-26T22:24:46.351Z,5.30
2017-06-26T22:27:14.702Z,7.30
2017-06-26T22:29:42.272Z,9.50
2017-06-26T22:32:09.855Z,6.23
2017-06-26T22:34:38.187Z,6.30
2017-06-26T22:37:05.759Z,7.53
2017-06-26T22:39:33.338Z,4.90
2017-06-26T22:42:00.914Z,7.17
2017-06-26T22:44:28.545Z,6.10
2017-06-26T22:46:56.118Z,7.07
2017-06-26T22:49:23.697Z,9.40
2017-06-26T22:51:51.278Z,8.23
2017-06-26T22:54:18.850Z,5.73
2017-06-26T22:56:46.514Z,5.63
2017-06-26T22:59:14.077Z,6.10
2017-06-26T23:01:41.674Z,8.53
2017-06-26T23:04:09.607Z,7.33
2017-06-26T23:06:37.194Z,6.37
2017-06-26T23:09:04.754Z,10.57
2017-06-26T23:11:32.353Z,6.57
2017-06-26T23:14:00.686Z,5.90
2017-06-26T23:16:28.268Z,6.63
2017-06-26T23:18:55.829Z,9.00
2017-06-26T23:21:23.394Z,7.83
2017-06-26T23:23:50.978Z,7.93
2017-06-26T23:26:19.306Z,5.30
2017-06-26T23:28:46.904Z,8.10
2017-06-26T23:31:15.262Z,11.53
2017-06-26T23:33:42.819Z,6.93
2017-06-26T23:36:10.412Z,8.13
2017-06-26T23:38:38.737Z,8.83
2017-06-26T23:41:06.396Z,8.13
2017-06-26T23:43:33.953Z,8.10
2017-06-26T23:46:01.517Z,6.17
2017-06-26T23:48:29.097Z,9.90
2017-06-26T23:50:56.664Z,8.63
2017-06-26T23:53:24.246Z,8.90
2017-06-26T23:55:52.608Z,7.50
2017-06-26T23:58:20.190Z,6.43
